Time;durP1;ratioP1;P1;durP2;ratioP2;P2;SDS_P1;SDS_P2;PMS_P1;PMS_P2;Temp;Humidity;BMP_temperature;BMP_pressure;BME280_temperature;BME280_humidity;BME280_pressure;Samples;Min_cycle;Max_cycle;Signal;HPM_P1;HPM_P2
2023/09/18 00:00:45;;;;;;;4.60;3.80;;;21.50;99.90;;;;;;4964289;28;20460;-70
2023/09/18 00:03:10;;;;;;;3.70;3.10;;;21.50;99.90;;;;;;4964534;28;20412;-69
2023/09/18 00:05:36;;;;;;;4.07;3.77;;;21.50;99.90;;;;;;4964484;28;20428;-70
2023/09/18 00:08:02;;;;;;;4.27;3.87;;;21.50;99.90;;;;;;4964312;28;20281;-69
2023/09/18 00:10:31;;;;;;;3.77;3.37;;;21.50;99.90;;;;;;4964538;28;20558;-71
2023/09/18 00:12:57;;;;;;;4.23;3.83;;;21.50;99.90;;;;;;4964522;28;20475;-70
2023/09/18 00:15:23;;;;;;;3.77;3.40;;;21.40;99.90;;;;;;4965230;28;20440;-70
2023/09/18 00:17:49;;;;;;;3.93;3.60;;;21.40;99.90;;;;;;4964915;28;20475;-68
2023/09/18 00:20:17;;;;;;;3.80;3.50;;;21.30;99.90;;;;;;4964706;28;20479;-70
2023/09/18 00:22:43;;;;;;;3.60;3.13;;;21.30;99.90;;;;;;4965473;28;20178;-70
2023/09/18 00:25:08;;;;;;;4.10;3.80;;;21.40;99.90;;;;;;4970148;28;20476;-71
2023/09/18 00:27:35;;;;;;;4.50;3.83;;;21.40;99.90;;;;;;4968387;28;20260;-71
2023/09/18 00:30:02;;;;;;;4.10;3.70;;;21.40;99.90;;;;;;4965457;28;20756;-70
2023/09/18 00:32:28;;;;;;;4.40;4.00;;;21.50;99.90;;;;;;4965900;28;20797;-71
2023/09/18 00:34:53;;;;;;;4.33;3.93;;;21.40;99.90;;;;;;4964437;28;20417;-70
2023/09/18 00:37:19;;;;;;;3.83;3.53;;;21.20;99.90;;;;;;4964206;28;20192;-71
2023/09/18 00:39:44;;;;;;;4.00;3.70;;;21.20;99.90;;;;;;4963891;28;20213;-69
2023/09/18 00:42:13;;;;;;;4.53;3.73;;;21.20;99.90;;;;;;4964148;28;20181;-69
2023/09/18 00:44:40;;;;;;;4.20;3.50;;;21.10;99.90;;;;;;4965088;28;20182;-70
2023/09/18 00:47:07;;;;;;;4.57;3.73;;;21.10;99.90;;;;;;4967388;28;20966;-70
2023/09/18 00:49:34;;;;;;;4.07;3.67;;;21.10;99.90;;;;;;4967266;28;21014;-69
2023/09/18 00:51:59;;;;;;;4.77;3.87;;;21.30;99.90;;;;;;4967790;28;20424;-69
2023/09/18 00:54:25;;;;;;;4.20;3.80;;;21.50;99.90;;;;;;4967196;28;20424;-70
2023/09/18 00:56:53;;;;;;;4.13;3.70;;;21.50;99.90;;;;;;4967394;28;20196;-70
2023/09/18 00:59:20;;;;;;;4.30;3.87;;;21.60;99.90;;;;;;4967385;28;20205;-71
2023/09/18 01:01:50;;;;;;;3.70;3.40;;;21.60;99.90;;;;;;4966961;28;20471;-71
2023/09/18 01:04:16;;;;;;;3.97;3.40;;;21.60;99.90;;;;;;4967310;28;20471;-70
2023/09/18 01:06:42;;;;;;;6.97;3.77;;;21.70;99.90;;;;;;4967490;28;20490;-70
2023/09/18 01:09:12;;;;;;;4.53;3.57;;;21.70;99.90;;;;;;4965937;28;20428;-71
2023/09/18 01:11:44;;;;;;;4.60;3.87;;;21.70;99.90;;;;;;4967491;28;20227;-71
2023/09/18 01:14:17;;;;;;;4.63;3.60;;;21.80;99.90;;;;;;4967454;28;20423;-71
2023/09/18 01:17:01;;;;;;;5.30;3.67;;;21.90;99.90;;;;;;4966841;28;20416;-70
2023/09/18 01:19:37;;;;;;;3.93;3.40;;;21.80;99.90;;;;;;4966780;28;21017;-71
2023/09/18 01:22:04;;;;;;;7.30;3.67;;;21.90;99.90;;;;;;4965646;28;20471;-71
2023/09/18 01:24:30;;;;;;;4.53;4.13;;;22.10;99.90;;;;;;4967192;28;20487;-70
2023/09/18 01:26:55;;;;;;;4.00;3.50;;;22.20;99.90;;;;;;4966952;28;20452;-70
2023/09/18 01:29:21;;;;;;;4.50;4.10;;;22.20;99.90;;;;;;4967070;28;20468;-71
2023/09/18 01:31:48;;;;;;;3.70;3.37;;;22.30;99.90;;;;;;4966732;28;20185;-70
2023/09/18 01:34:16;;;;;;;4.23;3.77;;;22.40;99.90;;;;;;4966641;28;20220;-69
2023/09/18 01:36:44;;;;;;;3.80;3.40;;;22.30;99.90;;;;;;4967376;28;20429;-70
2023/09/18 01:39:11;;;;;;;3.67;3.30;;;22.50;99.90;;;;;;4966729;28;20531;-70
2023/09/18 01:41:38;;;;;;;4.10;3.53;;;22.70;99.90;;;;;;4966383;28;20993;-70
2023/09/18 01:44:04;;;;;;;3.90;2.87;;;22.80;99.90;;;;;;4966321;28;20425;-70
2023/09/18 01:46:32;;;;;;;3.83;2.40;;;23.00;99.90;;;;;;4966610;28;20864;-71
2023/09/18 01:48:58;;;;;;;4.87;3.50;;;23.00;99.90;;;;;;4966880;28;20785;-71
2023/09/18 01:51:24;;;;;;;3.57;2.67;;;23.10;99.90;;;;;;4967026;28;20862;-70
2023/09/18 01:53:50;;;;;;;5.83;3.93;;;23.20;99.90;;;;;;4966292;28;20543;-71
2023/09/18 01:56:15;;;;;;;3.27;2.10;;;23.20;99.90;;;;;;4964202;28;20434;-68
2023/09/18 01:58:41;;;;;;;3.73;2.80;;;23.40;99.90;;;;;;4965948;28;20193;-71
2023/09/18 02:01:06;;;;;;;4.17;3.00;;;23.50;99.90;;;;;;4965918;28;20241;-69
2023/09/18 02:03:32;;;;;;;3.90;3.50;;;23.50;99.90;;;;;;4966147;28;20216;-71
2023/09/18 02:05:57;;;;;;;5.63;3.40;;;23.60;99.90;;;;;;4965789;28;20487;-68
2023/09/18 02:08:23;;;;;;;6.17;3.27;;;23.60;99.90;;;;;;4965901;28;20557;-70
2023/09/18 02:10:48;;;;;;;5.63;3.60;;;23.50;99.90;;;;;;4965599;28;20205;-70
2023/09/18 02:13:14;;;;;;;12.00;3.40;;;23.20;99.90;;;;;;4965273;28;20186;-71
2023/09/18 02:15:40;;;;;;;13.40;4.33;;;23.10;99.90;;;;;;4965749;28;20213;-68
2023/09/18 02:18:05;;;;;;;14.27;4.27;;;23.10;99.90;;;;;;4965921;28;20636;-68
2023/09/18 02:20:31;;;;;;;9.77;3.73;;;22.70;99.90;;;;;;4965103;28;20695;-71
2023/09/18 02:22:56;;;;;;;11.23;3.97;;;22.30;99.90;;;;;;4965807;28;20197;-68
2023/09/18 02:25:22;;;;;;;9.60;3.30;;;22.10;99.90;;;;;;4965355;28;20200;-70
2023/09/18 02:27:49;;;;;;;4.93;3.43;;;21.80;99.90;;;;;;4965545;28;20173;-70
2023/09/18 02:30:15;;;;;;;8.40;3.20;;;22.00;99.90;;;;;;4965982;28;20742;-70
2023/09/18 02:32:40;;;;;;;7.47;3.47;;;22.00;99.90;;;;;;4965651;28;20420;-69
2023/09/18 02:35:07;;;;;;;9.43;3.40;;;21.60;99.90;;;;;;4965549;28;20732;-71
2023/09/18 02:37:32;;;;;;;16.17;4.27;;;21.60;99.90;;;;;;4965140;28;20675;-69
2023/09/18 02:39:58;;;;;;;6.43;3.40;;;21.90;99.90;;;;;;4965139;28;20499;-69
2023/09/18 02:42:23;;;;;;;4.67;3.20;;;22.00;99.90;;;;;;4965296;28;20273;-67
2023/09/18 02:44:49;;;;;;;9.00;3.67;;;21.90;99.90;;;;;;4965199;28;20557;-68
2023/09/18 02:47:14;;;;;;;8.80;3.33;;;21.90;99.90;;;;;;4965137;28;20730;-69
2023/09/18 02:49:40;;;;;;;6.33;3.00;;;21.60;99.90;;;;;;4965242;28;20783;-70
2023/09/18 02:52:06;;;;;;;7.83;3.40;;;21.60;99.90;;;;;;4965579;28;20181;-71
2023/09/18 02:54:31;;;;;;;8.27;2.80;;;21.80;99.90;;;;;;4965274;28;20212;-69
2023/09/18 02:56:57;;;;;;;11.13;3.50;;;21.80;99.90;;;;;;4965217;28;20181;-69
2023/09/18 02:59:22;;;;;;;11.87;3.67;;;21.90;99.90;;;;;;4964843;28;21515;-69
2023/09/18 03:01:49;;;;;;;9.07;3.57;;;21.80;99.90;;;;;;4965158;28;20196;-69
2023/09/18 03:04:14;;;;;;;7.50;3.20;;;21.90;99.90;;;;;;4964770;28;20239;-68
2023/09/18 03:06:42;;;;;;;7.80;3.00;;;22.00;99.90;;;;;;4964838;28;20408;-71
2023/09/18 03:09:08;;;;;;;7.60;3.00;;;21.90;99.90;;;;;;4962891;28;20585;-70
2023/09/18 03:11:34;;;;;;;10.63;3.63;;;21.80;99.90;;;;;;4965207;28;20581;-68
2023/09/18 03:13:59;;;;;;;11.97;3.53;;;21.80;99.90;;;;;;4965443;28;20196;-69
2023/09/18 03:16:25;;;;;;;6.70;2.80;;;21.70;99.90;;;;;;4964790;28;20185;-70
2023/09/18 03:18:50;;;;;;;8.60;3.00;;;21.80;99.90;;;;;;4964788;28;20189;-70
2023/09/18 03:21:16;;;;;;;11.83;4.20;;;21.70;99.90;;;;;;4964371;28;20558;-67
2023/09/18 03:23:41;;;;;;;10.33;3.13;;;21.40;99.90;;;;;;4964712;28;20552;-69
2023/09/18 03:26:07;;;;;;;9.30;3.47;;;21.40;99.90;;;;;;4964827;28;20292;-68
2023/09/18 03:28:32;;;;;;;8.13;2.90;;;21.60;99.90;;;;;;4964775;28;20190;-71
2023/09/18 03:30:58;;;;;;;6.80;2.80;;;21.80;99.90;;;;;;4964504;28;20200;-68
2023/09/18 03:33:24;;;;;;;10.13;3.80;;;21.80;99.90;;;;;;4965466;28;20177;-68
2023/09/18 03:35:54;;;;;;;9.27;3.10;;;21.60;99.90;;;;;;4964697;28;20416;-69
2023/09/18 03:38:20;;;;;;;8.23;3.63;;;21.60;99.90;;;;;;4964402;28;20683;-70
2023/09/18 03:40:46;;;;;;;7.20;3.07;;;21.40;99.90;;;;;;4964439;28;20472;-70
2023/09/18 03:43:12;;;;;;;12.07;3.60;;;21.40;99.90;;;;;;4964483;28;20962;-70
2023/09/18 03:45:39;;;;;;;9.70;3.70;;;21.40;99.90;;;;;;4964545;28;21426;-69
2023/09/18 03:48:04;;;;;;;6.47;3.13;;;21.40;99.90;;;;;;4964698;28;20259;-71
2023/09/18 03:50:30;;;;;;;11.40;3.60;;;21.50;99.90;;;;;;4964294;28;20524;-68
2023/09/18 03:52:55;;;;;;;9.70;3.40;;;21.60;99.90;;;;;;4964813;28;20213;-70
2023/09/18 03:55:21;;;;;;;9.40;2.90;;;21.60;99.90;;;;;;4965041;28;20272;-70
2023/09/18 03:57:48;;;;;;;4.83;3.13;;;21.60;99.90;;;;;;4964396;28;20260;-69
2023/09/18 04:00:14;;;;;;;8.90;3.20;;;21.60;99.90;;;;;;4964450;28;20236;-68
2023/09/18 04:02:40;;;;;;;8.47;3.30;;;21.50;99.90;;;;;;4964728;28;20729;-68
2023/09/18 04:05:06;;;;;;;6.90;3.20;;;21.40;99.90;;;;;;4964511;28;20181;-70
2023/09/18 04:07:32;;;;;;;13.40;3.10;;;21.50;99.90;;;;;;4964154;28;20212;-68
2023/09/18 04:09:58;;;;;;;8.07;3.27;;;21.60;99.90;;;;;;4964382;28;20483;-68
2023/09/18 04:12:23;;;;;;;6.03;3.03;;;21.50;99.90;;;;;;4964254;28;20192;-70
2023/09/18 04:14:49;;;;;;;8.57;2.90;;;21.50;99.90;;;;;;4964334;28;20185;-68
2023/09/18 04:17:15;;;;;;;7.37;3.50;;;21.70;99.90;;;;;;4963982;28;20212;-69
2023/09/18 04:19:41;;;;;;;7.90;2.90;;;21.70;99.90;;;;;;4964220;28;20255;-69
2023/09/18 04:22:06;;;;;;;4.70;2.73;;;22.00;99.90;;;;;;4967502;28;20229;-70
2023/09/18 04:24:32;;;;;;;8.90;3.13;;;22.10;99.90;;;;;;4968019;28;20398;-67
2023/09/18 04:26:57;;;;;;;10.70;3.70;;;22.10;99.90;;;;;;4968427;28;20181;-69
2023/09/18 04:29:23;;;;;;;6.70;2.93;;;22.20;99.90;;;;;;4967479;28;20288;-71
2023/09/18 04:31:48;;;;;;;5.87;2.33;;;22.20;99.90;;;;;;4968483;28;20193;-71
2023/09/18 04:34:14;;;;;;;7.50;3.30;;;22.40;99.90;;;;;;4967954;28;20456;-68
2023/09/18 04:36:39;;;;;;;9.30;3.30;;;22.40;99.90;;;;;;4968242;28;20185;-70
2023/09/18 04:39:05;;;;;;;9.43;3.00;;;22.40;99.90;;;;;;4967729;28;20683;-68
2023/09/18 04:41:34;;;;;;;5.60;3.10;;;22.30;99.90;;;;;;4990795;23;20231;-70
2023/09/18 04:44:00;;;;;;;7.53;3.13;;;22.20;99.90;;;;;;4996178;28;20239;-70
2023/09/18 04:46:25;;;;;;;5.10;3.17;;;21.90;99.90;;;;;;4996281;28;20440;-71
2023/09/18 04:48:51;;;;;;;11.33;3.10;;;22.00;99.90;;;;;;4996688;28;20249;-71
2023/09/18 04:51:17;;;;;;;13.20;4.50;;;22.00;99.90;;;;;;4995932;28;20216;-69
2023/09/18 04:53:42;;;;;;;4.93;2.73;;;21.90;99.90;;;;;;4996475;28;20432;-72
2023/09/18 04:56:10;;;;;;;5.67;3.07;;;21.90;99.90;;;;;;4995827;28;20164;-72
2023/09/18 04:58:37;;;;;;;5.93;3.40;;;21.70;99.90;;;;;;4995646;28;20200;-71
2023/09/18 05:01:05;;;;;;;6.80;3.20;;;21.80;99.90;;;;;;4996532;28;20459;-72
2023/09/18 05:03:32;;;;;;;9.00;3.60;;;21.70;99.90;;;;;;4998246;28;20424;-69
2023/09/18 05:05:58;;;;;;;4.63;3.13;;;21.60;99.90;;;;;;4996165;28;20562;-69
2023/09/18 05:08:24;;;;;;;10.30;3.67;;;21.60;99.90;;;;;;4996177;28;20420;-69
2023/09/18 05:10:50;;;;;;;7.03;3.67;;;21.70;99.90;;;;;;4996504;28;20160;-69
2023/09/18 05:13:15;;;;;;;4.80;2.73;;;21.70;99.90;;;;;;4995382;28;20169;-68
2023/09/18 05:15:41;;;;;;;10.30;3.23;;;21.60;99.90;;;;;;4995639;28;20412;-69
2023/09/18 05:18:07;;;;;;;5.27;3.70;;;21.50;99.90;;;;;;4996109;28;20212;-68
2023/09/18 05:20:34;;;;;;;8.60;3.43;;;21.50;99.90;;;;;;4995518;28;20285;-69
2023/09/18 05:23:01;;;;;;;6.43;3.30;;;21.50;99.90;;;;;;4995509;28;20188;-68
2023/09/18 05:25:31;;;;;;;6.83;3.23;;;21.50;99.90;;;;;;4995299;28;20408;-68
2023/09/18 05:27:59;;;;;;;8.60;3.20;;;21.40;99.90;;;;;;4995442;28;20483;-69
2023/09/18 05:30:38;;;;;;;9.33;3.13;;;21.40;99.90;;;;;;4994927;28;20404;-67
2023/09/18 05:33:05;;;;;;;7.20;3.53;;;21.30;99.90;;;;;;4977344;28;20803;-68
2023/09/18 05:35:36;;;;;;;11.63;3.70;;;21.40;99.90;;;;;;4994923;28;20416;-68
2023/09/18 05:38:03;;;;;;;5.93;2.70;;;21.50;99.90;;;;;;4995062;28;20931;-67
2023/09/18 05:40:28;;;;;;;8.63;4.30;;;21.50;99.90;;;;;;4994314;28;20819;-69
2023/09/18 05:42:55;;;;;;;9.90;3.57;;;21.40;99.90;;;;;;4994123;28;20443;-68
2023/09/18 05:45:21;;;;;;;4.70;3.30;;;21.30;99.90;;;;;;4994697;28;20169;-68
2023/09/18 05:47:48;;;;;;;10.13;3.73;;;21.30;99.90;;;;;;4994627;28;20448;-69
2023/09/18 05:50:17;;;;;;;21.57;7.80;;;21.40;99.90;;;;;;4993354;28;20830;-67
2023/09/18 05:52:44;;;;;;;746.57;139.17;;;21.40;99.90;;;;;;4993720;28;20927;-68
2023/09/18 05:55:10;;;;;;;842.03;190.20;;;21.30;99.90;;;;;;4994513;28;20400;-69
2023/09/18 05:57:36;;;;;;;614.17;101.30;;;21.30;99.90;;;;;;4995352;28;20423;-69
2023/09/18 06:00:02;;;;;;;56.27;15.73;;;21.30;99.90;;;;;;4994234;28;20443;-70
2023/09/18 06:02:28;;;;;;;8.80;3.20;;;21.50;99.90;;;;;;4995616;28;20247;-68
2023/09/18 06:04:59;;;;;;;9.80;4.80;;;21.40;99.90;;;;;;4994594;28;20404;-69
2023/09/18 06:07:26;;;;;;;9.50;5.13;;;21.40;99.90;;;;;;4994517;28;20540;-71
2023/09/18 06:09:52;;;;;;;7.97;4.17;;;21.40;99.90;;;;;;4994355;28;20841;-68
2023/09/18 06:12:17;;;;;;;7.50;3.90;;;21.50;99.90;;;;;;4994029;28;20467;-67
2023/09/18 06:14:43;;;;;;;9.60;3.27;;;21.60;99.90;;;;;;4993128;28;20168;-67
2023/09/18 06:17:09;;;;;;;6.87;3.00;;;21.60;99.90;;;;;;4994191;28;20209;-68
2023/09/18 06:19:35;;;;;;;5.90;3.23;;;21.70;99.90;;;;;;4994305;28;20204;-68
2023/09/18 06:22:01;;;;;;;5.87;3.70;;;21.50;99.90;;;;;;4993631;28;20428;-68
2023/09/18 06:24:27;;;;;;;7.30;3.07;;;21.60;99.90;;;;;;4983894;28;20499;-68
2023/09/18 06:26:53;;;;;;;5.27;2.87;;;21.70;99.90;;;;;;4992647;28;20515;-69
2023/09/18 06:29:19;;;;;;;8.40;3.80;;;21.80;99.90;;;;;;4991648;28;20420;-69
2023/09/18 06:31:45;;;;;;;7.33;2.90;;;21.90;99.90;;;;;;4993150;28;20204;-67
2023/09/18 06:34:10;;;;;;;6.60;3.13;;;21.90;99.90;;;;;;4994015;28;20168;-68
2023/09/18 06:36:37;;;;;;;6.87;3.53;;;21.90;99.90;;;;;;4994181;28;20550;-68
2023/09/18 06:39:03;;;;;;;8.87;4.37;;;21.90;99.90;;;;;;4993944;28;20200;-67
2023/09/18 06:41:28;;;;;;;8.57;3.20;;;21.70;99.90;;;;;;4993786;28;20522;-70
2023/09/18 06:43:54;;;;;;;7.27;2.97;;;21.60;99.90;;;;;;4993251;28;20243;-69
2023/09/18 06:46:20;;;;;;;6.43;2.73;;;21.60;99.90;;;;;;4994563;28;20304;-68
2023/09/18 06:48:49;;;;;;;7.40;3.40;;;21.60;99.90;;;;;;4993729;28;20662;-68
2023/09/18 06:51:15;;;;;;;6.23;3.07;;;21.60;99.90;;;;;;4993773;28;20260;-68
2023/09/18 06:53:41;;;;;;;5.97;3.17;;;21.60;99.90;;;;;;4993862;28;20412;-67
2023/09/18 06:56:06;;;;;;;6.70;3.13;;;21.50;99.90;;;;;;4993543;28;20913;-67
2023/09/18 06:58:32;;;;;;;8.37;3.63;;;21.40;99.90;;;;;;4993687;28;20174;-68
2023/09/18 07:00:57;;;;;;;5.80;3.07;;;21.30;99.90;;;;;;4993578;28;20334;-67
2023/09/18 07:03:23;;;;;;;8.17;3.30;;;21.30;99.90;;;;;;4993461;28;20649;-67
2023/09/18 07:05:49;;;;;;;7.13;2.67;;;21.30;99.90;;;;;;4993493;28;20251;-69
2023/09/18 07:08:19;;;;;;;7.70;3.10;;;21.40;99.90;;;;;;4993476;28;20175;-68
2023/09/18 07:10:44;;;;;;;6.17;2.53;;;21.40;99.90;;;;;;4993306;28;20187;-68
2023/09/18 07:13:11;;;;;;;4.13;2.50;;;21.50;99.90;;;;;;4993165;28;20507;-67
2023/09/18 07:15:37;;;;;;;8.87;2.63;;;21.40;99.90;;;;;;4992492;28;20203;-70
2023/09/18 07:18:03;;;;;;;6.70;2.60;;;21.50;99.90;;;;;;4993210;28;20404;-69
2023/09/18 07:20:28;;;;;;;4.83;2.30;;;21.70;99.90;;;;;;4993332;28;20581;-69
2023/09/18 07:22:55;;;;;;;3.63;2.33;;;21.80;99.90;;;;;;4993075;28;20518;-69
2023/09/18 07:25:21;;;;;;;5.20;2.53;;;21.90;99.90;;;;;;4993448;28;20175;-68
2023/09/18 07:27:46;;;;;;;5.17;2.23;;;22.00;99.90;;;;;;4993094;28;20401;-68
2023/09/18 07:30:16;;;;;;;4.33;2.10;;;22.20;99.90;;;;;;4993285;28;20553;-67
2023/09/18 07:32:42;;;;;;;7.30;2.37;;;22.30;99.90;;;;;;4991637;28;20625;-67
2023/09/18 07:35:09;;;;;;;7.07;3.00;;;22.40;99.90;;;;;;4993294;28;20810;-69
2023/09/18 07:37:35;;;;;;;15.37;3.37;;;22.50;99.90;;;;;;4993216;28;20415;-67
2023/09/18 07:40:02;;;;;;;3.73;1.80;;;22.40;99.90;;;;;;4993061;28;20538;-70
2023/09/18 07:42:27;;;;;;;3.00;1.70;;;22.50;99.90;;;;;;4992422;28;20825;-70
2023/09/18 07:44:54;;;;;;;4.60;1.70;;;22.30;99.90;;;;;;4991694;28;20418;-68
2023/09/18 07:47:20;;;;;;;4.33;1.80;;;22.30;99.90;;;;;;4993239;28;20172;-69
2023/09/18 07:49:46;;;;;;;9.67;2.60;;;22.40;99.90;;;;;;4993999;28;20412;-70
2023/09/18 07:52:12;;;;;;;7.20;1.67;;;22.40;99.90;;;;;;4992932;28;20938;-68
2023/09/18 07:54:37;;;;;;;4.20;1.90;;;22.40;99.90;;;;;;4995914;28;20411;-69
2023/09/18 07:57:03;;;;;;;5.87;1.50;;;22.50;99.90;;;;;;4997270;28;20211;-68
2023/09/18 07:59:29;;;;;;;3.13;1.60;;;22.60;99.90;;;;;;4997320;28;20193;-68
2023/09/18 08:01:54;;;;;;;4.13;1.40;;;22.50;99.90;;;;;;4997066;28;20197;-69
2023/09/18 08:04:20;;;;;;;2.87;1.63;;;22.50;99.90;;;;;;4996896;28;20321;-68
2023/09/18 08:06:47;;;;;;;7.43;4.20;;;22.50;99.90;;;;;;4996816;28;20173;-67
2023/09/18 08:09:15;;;;;;;3.63;1.30;;;22.40;99.90;;;;;;4997059;28;20418;-69
2023/09/18 08:11:42;;;;;;;4.33;1.80;;;22.40;99.90;;;;;;4996745;28;20435;-69
2023/09/18 08:14:07;;;;;;;3.50;1.40;;;22.70;99.90;;;;;;4996910;28;20414;-70
2023/09/18 08:16:33;;;;;;;2.90;1.30;;;22.70;99.90;;;;;;4996656;28;20794;-68
2023/09/18 08:19:01;;;;;;;3.97;1.60;;;22.70;99.90;;;;;;4996537;28;20165;-68
2023/09/18 08:21:28;;;;;;;4.50;3.20;;;22.30;99.90;;;;;;4996441;28;20189;-68
2023/09/18 08:23:54;;;;;;;7.23;1.63;;;22.40;99.90;;;;;;4996674;28;20458;-66
2023/09/18 08:26:20;;;;;;;3.53;1.70;;;22.40;99.90;;;;;;4996677;28;20412;-67
2023/09/18 08:28:46;;;;;;;4.53;1.50;;;22.30;99.90;;;;;;4997210;28;20218;-70
2023/09/18 08:31:11;;;;;;;2.87;1.13;;;22.30;99.90;;;;;;4996696;28;20435;-68
2023/09/18 08:33:37;;;;;;;3.57;1.50;;;22.10;99.90;;;;;;4995695;28;20203;-68
2023/09/18 08:36:03;;;;;;;2.73;1.47;;;22.00;99.90;;;;;;4996234;28;20168;-67
2023/09/18 08:38:28;;;;;;;2.53;1.43;;;22.00;99.90;;;;;;4996556;28;20161;-67
2023/09/18 08:40:54;;;;;;;2.60;1.37;;;22.00;99.90;;;;;;4996308;28;20383;-67
2023/09/18 08:43:21;;;;;;;4.70;1.43;;;21.80;99.90;;;;;;4996366;28;20176;-67
2023/09/18 08:45:52;;;;;;;3.47;1.10;;;21.70;99.90;;;;;;4996169;28;20465;-67
2023/09/18 08:48:18;;;;;;;3.50;1.67;;;21.90;99.90;;;;;;4996494;28;20932;-67
2023/09/18 08:50:45;;;;;;;5.67;1.63;;;21.70;99.90;;;;;;4996536;28;20442;-68
2023/09/18 08:53:11;;;;;;;2.80;1.10;;;21.60;99.90;;;;;;4995951;28;20412;-68
2023/09/18 08:55:37;;;;;;;3.20;1.20;;;21.40;99.90;;;;;;4996044;28;20412;-68
2023/09/18 08:58:03;;;;;;;2.60;1.23;;;21.50;99.90;;;;;;4995907;28;20439;-69
2023/09/18 09:00:29;;;;;;;5.63;1.60;;;21.50;99.90;;;;;;4995758;28;20210;-68
2023/09/18 09:02:55;;;;;;;4.13;1.40;;;21.50;99.90;;;;;;4995642;28;20432;-69
2023/09/18 09:05:23;;;;;;;4.20;1.43;;;21.30;99.90;;;;;;4995004;28;20164;-68
2023/09/18 09:07:50;;;;;;;1.77;1.20;;;21.30;99.90;;;;;;4996179;28;20430;-68
2023/09/18 09:10:17;;;;;;;2.10;1.60;;;21.50;99.90;;;;;;4995892;28;20414;-67
2023/09/18 09:12:56;;;;;;;2.23;1.10;;;21.40;99.90;;;;;;4995569;28;20432;-68
2023/09/18 09:15:27;;;;;;;2.40;1.10;;;21.50;99.90;;;;;;4995525;28;20411;-69
2023/09/18 09:18:05;;;;;;;2.03;1.30;;;21.60;99.90;;;;;;4995819;28;20388;-68
2023/09/18 09:20:31;;;;;;;6.40;5.90;;;21.60;99.90;;;;;;4995671;28;20447;-69
2023/09/18 09:23:00;;;;;;;2.37;1.40;;;21.50;99.90;;;;;;4995507;28;20420;-69
2023/09/18 09:25:31;;;;;;;2.77;1.60;;;21.40;99.90;;;;;;4995573;28;20201;-69
2023/09/18 09:28:04;;;;;;;2.40;1.70;;;21.20;99.90;;;;;;4995732;28;20392;-69
2023/09/18 09:30:31;;;;;;;2.80;1.50;;;21.00;99.90;;;;;;4996048;28;20871;-69
2023/09/18 09:32:58;;;;;;;3.87;1.63;;;21.00;99.90;;;;;;4995177;28;20431;-66
2023/09/18 09:35:30;;;;;;;3.20;1.70;;;21.00;99.90;;;;;;4995342;28;20503;-69
2023/09/18 09:38:01;;;;;;;3.47;1.90;;;21.00;99.90;;;;;;4995245;28;20839;-69
2023/09/18 09:40:30;;;;;;;5.27;1.67;;;21.00;99.90;;;;;;4975588;28;20464;-69
2023/09/18 09:43:04;;;;;;;3.30;1.57;;;21.10;99.90;;;;;;4991662;28;20856;-70
2023/09/18 09:45:35;;;;;;;3.50;1.93;;;21.30;99.90;;;;;;4995924;28;20457;-71
2023/09/18 09:48:04;;;;;;;4.07;1.90;;;21.40;99.90;;;;;;4995066;28;20396;-71
2023/09/18 09:50:32;;;;;;;3.30;1.93;;;21.50;99.90;;;;;;4995274;28;20423;-71
2023/09/18 09:52:57;;;;;;;4.43;1.60;;;21.70;99.90;;;;;;4995122;28;20444;-69
2023/09/18 09:55:30;;;;;;;2.57;1.50;;;21.60;99.90;;;;;;4994950;28;20411;-67
2023/09/18 09:57:59;;;;;;;3.43;1.97;;;21.50;99.90;;;;;;4995465;28;20171;-68
2023/09/18 10:00:40;;;;;;;2.27;1.37;;;21.60;99.90;;;;;;4994033;28;20483;-67
2023/09/18 10:03:08;;;;;;;14.97;1.97;;;21.90;99.90;;;;;;4994843;28;20439;-69
2023/09/18 10:05:39;;;;;;;4.57;1.90;;;22.10;99.90;;;;;;4994773;28;20423;-69
2023/09/18 10:08:11;;;;;;;4.30;2.00;;;22.30;99.90;;;;;;4993340;28;20411;-67
2023/09/18 10:10:47;;;;;;;3.70;1.30;;;22.40;99.90;;;;;;4994972;28;20829;-69
2023/09/18 10:13:32;;;;;;;3.23;1.60;;;22.50;99.90;;;;;;4994779;28;20403;-70
2023/09/18 10:16:00;;;;;;;2.30;1.60;;;22.60;99.90;;;;;;4994972;28;20495;-68
2023/09/18 10:19:07;;;;;;;53.17;12.20;;;22.50;99.90;;;;;;4994678;28;20757;-68
2023/09/18 10:21:42;;;;;;;4.77;1.90;;;22.30;99.90;;;;;;4991465;28;20589;-68
2023/09/18 10:24:19;;;;;;;3.30;1.93;;;22.30;99.90;;;;;;4994675;28;20515;-68
2023/09/18 10:26:53;;;;;;;2.30;1.37;;;21.90;99.90;;;;;;4994583;28;20388;-69
2023/09/18 10:29:20;;;;;;;3.63;1.97;;;21.70;99.90;;;;;;4994355;28;20474;-69
2023/09/18 10:31:48;;;;;;;4.30;1.73;;;21.80;99.90;;;;;;4994345;28;20494;-69
2023/09/18 10:34:15;;;;;;;4.03;2.03;;;21.90;99.90;;;;;;4994314;28;20400;-69
2023/09/18 10:36:42;;;;;;;2.67;1.80;;;22.00;99.90;;;;;;4993921;28;20396;-68
2023/09/18 10:39:10;;;;;;;3.03;1.40;;;22.10;99.90;;;;;;4993747;28;20404;-68
2023/09/18 10:41:38;;;;;;;6.57;1.97;;;22.10;99.90;;;;;;5006744;23;20444;-70
2023/09/18 10:44:04;;;;;;;3.20;1.10;;;22.00;99.90;;;;;;4975072;28;20417;-69
2023/09/18 10:46:30;;;;;;;3.93;1.60;;;22.00;99.90;;;;;;4974914;28;20389;-69
2023/09/18 10:48:56;;;;;;;1.70;1.27;;;21.90;99.90;;;;;;4975335;28;20405;-69
2023/09/18 10:51:23;;;;;;;2.90;1.60;;;21.80;99.90;;;;;;4977322;28;20393;-68
2023/09/18 10:53:49;;;;;;;2.67;1.77;;;21.60;99.90;;;;;;4994097;28;20419;-69
2023/09/18 10:56:16;;;;;;;3.30;2.03;;;21.60;99.90;;;;;;4994595;28;20392;-69
2023/09/18 10:58:42;;;;;;;2.30;1.53;;;21.70;99.90;;;;;;4994551;28;20400;-71
2023/09/18 11:01:14;;;;;;;2.60;1.40;;;21.50;99.90;;;;;;4994122;28;20841;-72
2023/09/18 11:03:41;;;;;;;2.83;1.57;;;21.50;99.90;;;;;;4983464;28;20563;-71
2023/09/18 11:06:10;;;;;;;4.67;2.20;;;21.30;99.90;;;;;;4994242;28;20399;-69
2023/09/18 11:08:49;;;;;;;4.20;1.70;;;21.40;99.90;;;;;;4995247;28;20955;-72
2023/09/18 11:11:21;;;;;;;2.30;1.50;;;21.10;99.90;;;;;;4992464;28;20429;-68
2023/09/18 11:13:50;;;;;;;1.60;1.20;;;21.00;99.90;;;;;;4984203;28;20404;-68
2023/09/18 11:16:27;;;;;;;1.67;1.20;;;20.70;99.90;;;;;;4974587;28;20413;-70
2023/09/18 11:19:05;;;;;;;3.93;1.40;;;20.70;99.90;;;;;;4974303;28;20412;-69
2023/09/18 11:21:34;;;;;;;4.30;1.37;;;20.60;99.90;;;;;;4974410;28;20435;-70
2023/09/18 11:24:04;;;;;;;2.80;1.60;;;20.80;99.90;;;;;;4985025;28;20833;-70
2023/09/18 11:26:32;;;;;;;2.47;1.47;;;21.00;99.90;;;;;;4993598;28;20446;-69
2023/09/18 11:29:06;;;;;;;2.70;2.07;;;21.10;99.90;;;;;;4993095;28;20404;-70
2023/09/18 11:32:10;;;;;;;2.40;1.43;;;21.40;99.90;;;;;;4993598;28;20408;-70
2023/09/18 11:34:36;;;;;;;10.07;3.40;;;21.30;99.90;;;;;;4938041;29;20418;-71
2023/09/18 11:37:18;;;;;;;3.70;1.50;;;21.30;99.90;;;;;;4934811;29;20956;-71
2023/09/18 11:39:45;;;;;;;4.13;1.70;;;21.20;99.90;;;;;;4958297;28;20212;-70
2023/09/18 11:42:19;;;;;;;2.37;1.50;;;20.90;99.90;;;;;;4975701;28;20540;-70
2023/09/18 11:44:48;;;;;;;3.50;1.40;;;20.60;99.90;;;;;;4988827;28;20407;-70
2023/09/18 11:47:22;;;;;;;3.77;1.83;;;20.60;99.90;;;;;;4995058;28;20408;-71
2023/09/18 11:49:54;;;;;;;3.00;1.43;;;20.70;99.90;;;;;;4996665;28;20388;-70
2023/09/18 11:52:24;;;;;;;2.23;1.50;;;20.70;99.90;;;;;;4995721;28;20427;-73
2023/09/18 11:54:51;;;;;;;3.70;1.73;;;20.90;99.90;;;;;;4977620;28;20488;-70
2023/09/18 11:57:18;;;;;;;4.03;1.40;;;21.00;99.90;;;;;;4975239;28;20409;-73
2023/09/18 11:59:46;;;;;;;3.23;1.53;;;21.10;99.90;;;;;;4974479;28;20448;-70
2023/09/18 12:02:45;;;;;;;3.00;1.37;;;21.20;99.90;;;;;;4975148;28;20456;-69
2023/09/18 12:05:19;;;;;;;7.50;3.33;;;21.30;99.90;;;;;;4975090;28;20563;-69
2023/09/18 12:07:46;;;;;;;8.33;3.60;;;21.40;99.90;;;;;;4974652;28;20396;-69
2023/09/18 12:10:20;;;;;;;3.70;2.47;;;21.50;99.90;;;;;;4975008;28;20412;-69
2023/09/18 12:12:46;;;;;;;1.93;1.17;;;21.50;99.90;;;;;;4975139;28;20503;-70
2023/09/18 12:15:15;;;;;;;4.57;2.03;;;21.50;99.90;;;;;;4995220;28;20403;-70
2023/09/18 12:17:40;;;;;;;4.17;1.90;;;21.80;99.90;;;;;;4993946;28;20412;-72
2023/09/18 12:20:06;;;;;;;1.97;1.43;;;21.60;99.90;;;;;;4993838;28;20448;-70
2023/09/18 12:22:35;;;;;;;3.50;1.50;;;21.50;99.90;;;;;;4993149;28;20184;-69
2023/09/18 12:25:14;;;;;;;3.20;1.73;;;21.60;99.90;;;;;;4974810;28;20439;-70
2023/09/18 12:27:42;;;;;;;2.07;1.47;;;21.70;99.90;;;;;;4974519;28;20413;-69
2023/09/18 12:30:09;;;;;;;4.40;1.80;;;21.50;99.90;;;;;;4974496;28;20422;-71
2023/09/18 12:32:39;;;;;;;4.83;1.90;;;21.70;99.90;;;;;;4973693;28;20519;-71
2023/09/18 12:35:06;;;;;;;3.60;1.40;;;21.70;99.90;;;;;;4992282;28;20412;-70
2023/09/18 12:37:34;;;;;;;2.80;1.40;;;21.60;99.90;;;;;;4993281;28;20410;-71
2023/09/18 12:39:59;;;;;;;2.43;1.60;;;21.70;99.90;;;;;;4987034;28;20444;-67
2023/09/18 12:42:26;;;;;;;2.60;1.40;;;21.90;99.90;;;;;;4976861;28;20515;-68
2023/09/18 12:44:52;;;;;;;2.23;1.20;;;22.30;99.90;;;;;;4978317;28;20172;-68
2023/09/18 12:47:18;;;;;;;6.30;1.37;;;22.60;99.90;;;;;;4976860;28;20397;-68